Lanyon, Iowa
Current Conditions -  °F | °C
As of 10:35 PM on Thursday 18 Dec 2014 (Local Time) from KFOD Reporting Station
Overcast Overcast  
Wind Chill: 27°   Ceiling: 2200
Heat Index: 27°   Visibility: 10mi
Dew Point: 19°   Wind: 3mph
Humidity: 74%   Direction: 150°SSE
Pressure: 30.26"   Gusts: NA
Location:  42.251°N, 94.2206°W
Report Text: KFOD 190435Z AUTO 15003KT 10SM OVC022 M03/M07 A3026 RMK AO1
Loading
Personal Weather Stations






























Interactive Weather Map New forecast layout! Learn more

10-Day Weather Forecast

Advertisements
Track Severe Weather on mobile